sensor_id;sensor_type;location;lat;lon;timestamp;P1;durP1;ratioP1;P2;durP2;ratioP2
691;SDS011;70475;50.084;8.576;2023-09-19T00:00:20;1.70;;;0.73;;
691;SDS011;70475;50.084;8.576;2023-09-19T00:02:52;1.90;;;0.80;;
691;SDS011;70475;50.084;8.576;2023-09-19T00:05:20;2.00;;;1.17;;
691;SDS011;70475;50.084;8.576;2023-09-19T00:07:50;1.30;;;0.83;;
691;SDS011;70475;50.084;8.576;2023-09-19T00:10:20;1.90;;;1.10;;
691;SDS011;70475;50.084;8.576;2023-09-19T00:12:52;1.90;;;1.20;;
691;SDS011;70475;50.084;8.576;2023-09-19T00:15:21;2.67;;;1.00;;
691;SDS011;70475;50.084;8.576;2023-09-19T00:17:49;3.03;;;1.03;;
691;SDS011;70475;50.084;8.576;2023-09-19T00:20:18;1.40;;;1.00;;
691;SDS011;70475;50.084;8.576;2023-09-19T00:22:49;4.70;;;1.10;;
691;SDS011;70475;50.084;8.576;2023-09-19T00:25:18;2.67;;;1.10;;
691;SDS011;70475;50.084;8.576;2023-09-19T00:27:46;3.70;;;1.80;;
691;SDS011;70475;50.084;8.576;2023-09-19T00:30:19;1.60;;;1.00;;
691;SDS011;70475;50.084;8.576;2023-09-19T00:32:48;3.03;;;1.53;;
691;SDS011;70475;50.084;8.576;2023-09-19T00:35:18;1.60;;;0.73;;
691;SDS011;70475;50.084;8.576;2023-09-19T00:37:45;1.40;;;1.03;;
691;SDS011;70475;50.084;8.576;2023-09-19T00:40:13;2.50;;;0.93;;
691;SDS011;70475;50.084;8.576;2023-09-19T00:42:42;2.63;;;1.00;;
691;SDS011;70475;50.084;8.576;2023-09-19T00:45:10;1.50;;;0.87;;
691;SDS011;70475;50.084;8.576;2023-09-19T00:47:40;2.70;;;0.80;;
691;SDS011;70475;50.084;8.576;2023-09-19T00:50:10;4.57;;;2.17;;
691;SDS011;70475;50.084;8.576;2023-09-19T00:52:41;2.20;;;0.90;;
691;SDS011;70475;50.084;8.576;2023-09-19T00:55:10;1.90;;;1.33;;
691;SDS011;70475;50.084;8.576;2023-09-19T00:57:40;1.30;;;0.90;;
691;SDS011;70475;50.084;8.576;2023-09-19T01:00:17;2.33;;;1.00;;
691;SDS011;70475;50.084;8.576;2023-09-19T01:02:48;2.60;;;1.33;;
691;SDS011;70475;50.084;8.576;2023-09-19T01:05:15;1.17;;;0.90;;
691;SDS011;70475;50.084;8.576;2023-09-19T01:07:44;1.90;;;0.90;;
691;SDS011;70475;50.084;8.576;2023-09-19T01:10:15;1.30;;;0.90;;
691;SDS011;70475;50.084;8.576;2023-09-19T01:12:52;1.50;;;1.20;;
691;SDS011;70475;50.084;8.576;2023-09-19T01:15:28;2.30;;;1.67;;
691;SDS011;70475;50.084;8.576;2023-09-19T01:18:11;1.27;;;0.73;;
691;SDS011;70475;50.084;8.576;2023-09-19T01:20:53;1.40;;;0.90;;
691;SDS011;70475;50.084;8.576;2023-09-19T01:23:27;3.87;;;1.33;;
691;SDS011;70475;50.084;8.576;2023-09-19T01:26:07;2.93;;;1.57;;
691;SDS011;70475;50.084;8.576;2023-09-19T01:28:52;2.00;;;1.13;;
691;SDS011;70475;50.084;8.576;2023-09-19T01:31:22;1.70;;;0.97;;
691;SDS011;70475;50.084;8.576;2023-09-19T01:33:55;2.90;;;1.30;;
691;SDS011;70475;50.084;8.576;2023-09-19T01:36:27;4.60;;;1.07;;
691;SDS011;70475;50.084;8.576;2023-09-19T01:38:57;3.07;;;1.13;;
691;SDS011;70475;50.084;8.576;2023-09-19T01:41:29;8.53;;;1.40;;
691;SDS011;70475;50.084;8.576;2023-09-19T01:44:06;2.33;;;1.40;;
691;SDS011;70475;50.084;8.576;2023-09-19T01:46:41;3.93;;;1.60;;
691;SDS011;70475;50.084;8.576;2023-09-19T01:49:13;1.70;;;1.30;;
691;SDS011;70475;50.084;8.576;2023-09-19T01:51:53;1.80;;;1.20;;
691;SDS011;70475;50.084;8.576;2023-09-19T01:54:30;2.70;;;1.33;;
691;SDS011;70475;50.084;8.576;2023-09-19T01:57:05;1.97;;;1.50;;
691;SDS011;70475;50.084;8.576;2023-09-19T01:59:38;3.07;;;1.43;;
691;SDS011;70475;50.084;8.576;2023-09-19T02:02:13;3.63;;;1.20;;
691;SDS011;70475;50.084;8.576;2023-09-19T02:04:42;2.97;;;1.90;;
691;SDS011;70475;50.084;8.576;2023-09-19T02:07:10;2.20;;;1.43;;
691;SDS011;70475;50.084;8.576;2023-09-19T02:09:37;2.50;;;1.20;;
691;SDS011;70475;50.084;8.576;2023-09-19T02:12:05;1.77;;;1.13;;
691;SDS011;70475;50.084;8.576;2023-09-19T02:14:34;1.70;;;1.23;;
691;SDS011;70475;50.084;8.576;2023-09-19T02:17:02;1.50;;;1.10;;
691;SDS011;70475;50.084;8.576;2023-09-19T02:19:33;1.20;;;0.90;;
691;SDS011;70475;50.084;8.576;2023-09-19T02:22:00;1.63;;;1.20;;
691;SDS011;70475;50.084;8.576;2023-09-19T02:24:29;2.10;;;1.37;;
691;SDS011;70475;50.084;8.576;2023-09-19T02:26:57;1.60;;;1.07;;
691;SDS011;70475;50.084;8.576;2023-09-19T02:29:25;3.30;;;1.20;;
691;SDS011;70475;50.084;8.576;2023-09-19T02:31:53;1.70;;;1.30;;
691;SDS011;70475;50.084;8.576;2023-09-19T02:34:22;2.73;;;1.70;;
691;SDS011;70475;50.084;8.576;2023-09-19T02:36:53;2.10;;;1.13;;
691;SDS011;70475;50.084;8.576;2023-09-19T02:39:21;2.30;;;1.40;;
691;SDS011;70475;50.084;8.576;2023-09-19T02:41:49;1.80;;;1.40;;
691;SDS011;70475;50.084;8.576;2023-09-19T02:44:17;2.67;;;1.40;;
691;SDS011;70475;50.084;8.576;2023-09-19T02:46:46;1.80;;;1.10;;
691;SDS011;70475;50.084;8.576;2023-09-19T02:49:14;4.43;;;1.90;;
691;SDS011;70475;50.084;8.576;2023-09-19T02:51:43;2.33;;;1.30;;
691;SDS011;70475;50.084;8.576;2023-09-19T02:54:13;5.13;;;1.60;;
691;SDS011;70475;50.084;8.576;2023-09-19T02:56:41;2.50;;;1.73;;
691;SDS011;70475;50.084;8.576;2023-09-19T02:59:09;3.00;;;1.43;;
691;SDS011;70475;50.084;8.576;2023-09-19T03:01:37;2.90;;;1.23;;
691;SDS011;70475;50.084;8.576;2023-09-19T03:04:05;1.63;;;1.10;;
691;SDS011;70475;50.084;8.576;2023-09-19T03:06:36;2.90;;;1.60;;
691;SDS011;70475;50.084;8.576;2023-09-19T03:09:04;2.00;;;1.30;;
691;SDS011;70475;50.084;8.576;2023-09-19T03:11:41;5.07;;;1.83;;
691;SDS011;70475;50.084;8.576;2023-09-19T03:14:08;3.13;;;1.87;;
691;SDS011;70475;50.084;8.576;2023-09-19T03:16:37;3.70;;;1.90;;
691;SDS011;70475;50.084;8.576;2023-09-19T03:19:04;2.20;;;1.60;;
691;SDS011;70475;50.084;8.576;2023-09-19T03:21:33;1.97;;;1.37;;
691;SDS011;70475;50.084;8.576;2023-09-19T03:24:01;2.80;;;1.80;;
691;SDS011;70475;50.084;8.576;2023-09-19T03:26:29;3.00;;;1.70;;
691;SDS011;70475;50.084;8.576;2023-09-19T03:28:58;3.10;;;1.90;;
691;SDS011;70475;50.084;8.576;2023-09-19T03:31:25;3.03;;;1.70;;
691;SDS011;70475;50.084;8.576;2023-09-19T03:33:53;6.00;;;2.50;;
691;SDS011;70475;50.084;8.576;2023-09-19T03:36:21;2.90;;;2.20;;
691;SDS011;70475;50.084;8.576;2023-09-19T03:38:48;1.83;;;1.60;;
691;SDS011;70475;50.084;8.576;2023-09-19T03:41:16;3.00;;;1.77;;
691;SDS011;70475;50.084;8.576;2023-09-19T03:43:44;4.03;;;1.70;;
691;SDS011;70475;50.084;8.576;2023-09-19T03:46:12;3.90;;;2.20;;
691;SDS011;70475;50.084;8.576;2023-09-19T03:48:41;2.33;;;1.83;;
691;SDS011;70475;50.084;8.576;2023-09-19T03:51:09;2.63;;;2.03;;
691;SDS011;70475;50.084;8.576;2023-09-19T03:53:37;2.20;;;1.97;;
691;SDS011;70475;50.084;8.576;2023-09-19T03:56:05;4.47;;;2.23;;
691;SDS011;70475;50.084;8.576;2023-09-19T03:58:34;2.70;;;2.10;;
691;SDS011;70475;50.084;8.576;2023-09-19T04:01:05;4.73;;;2.43;;
691;SDS011;70475;50.084;8.576;2023-09-19T04:03:35;2.40;;;1.90;;
691;SDS011;70475;50.084;8.576;2023-09-19T04:06:12;2.30;;;1.80;;
691;SDS011;70475;50.084;8.576;2023-09-19T04:08:40;2.77;;;2.10;;
691;SDS011;70475;50.084;8.576;2023-09-19T04:11:08;3.10;;;1.87;;
691;SDS011;70475;50.084;8.576;2023-09-19T04:13:35;2.63;;;2.10;;
691;SDS011;70475;50.084;8.576;2023-09-19T04:16:03;3.87;;;2.40;;
691;SDS011;70475;50.084;8.576;2023-09-19T04:18:33;3.43;;;1.93;;
691;SDS011;70475;50.084;8.576;2023-09-19T04:21:04;3.70;;;2.30;;
691;SDS011;70475;50.084;8.576;2023-09-19T04:23:32;4.50;;;2.70;;
691;SDS011;70475;50.084;8.576;2023-09-19T04:25:59;4.53;;;2.10;;
691;SDS011;70475;50.084;8.576;2023-09-19T04:28:27;2.23;;;1.83;;
691;SDS011;70475;50.084;8.576;2023-09-19T04:30:54;2.70;;;1.70;;
691;SDS011;70475;50.084;8.576;2023-09-19T04:33:22;3.43;;;1.80;;
691;SDS011;70475;50.084;8.576;2023-09-19T04:35:51;2.97;;;1.70;;
691;SDS011;70475;50.084;8.576;2023-09-19T04:38:18;2.67;;;1.90;;
691;SDS011;70475;50.084;8.576;2023-09-19T04:40:46;1.87;;;1.70;;
691;SDS011;70475;50.084;8.576;2023-09-19T04:43:13;4.93;;;1.77;;
691;SDS011;70475;50.084;8.576;2023-09-19T04:45:41;2.87;;;2.03;;
691;SDS011;70475;50.084;8.576;2023-09-19T04:48:09;2.73;;;1.87;;
691;SDS011;70475;50.084;8.576;2023-09-19T04:50:37;3.43;;;1.70;;
691;SDS011;70475;50.084;8.576;2023-09-19T04:53:06;1.40;;;1.30;;
691;SDS011;70475;50.084;8.576;2023-09-19T04:55:33;2.47;;;1.50;;
691;SDS011;70475;50.084;8.576;2023-09-19T04:58:02;1.63;;;1.30;;
691;SDS011;70475;50.084;8.576;2023-09-19T05:00:30;4.13;;;2.07;;
691;SDS011;70475;50.084;8.576;2023-09-19T05:03:01;1.47;;;1.30;;
691;SDS011;70475;50.084;8.576;2023-09-19T05:05:30;1.70;;;1.40;;
691;SDS011;70475;50.084;8.576;2023-09-19T05:07:57;2.23;;;1.67;;
691;SDS011;70475;50.084;8.576;2023-09-19T05:10:32;5.27;;;2.03;;
691;SDS011;70475;50.084;8.576;2023-09-19T05:13:00;2.20;;;1.80;;
691;SDS011;70475;50.084;8.576;2023-09-19T05:15:27;3.50;;;1.60;;
691;SDS011;70475;50.084;8.576;2023-09-19T05:17:55;2.17;;;1.53;;
691;SDS011;70475;50.084;8.576;2023-09-19T05:20:24;2.20;;;1.87;;
691;SDS011;70475;50.084;8.576;2023-09-19T05:22:59;1.53;;;1.43;;
691;SDS011;70475;50.084;8.576;2023-09-19T05:25:35;1.80;;;1.67;;
691;SDS011;70475;50.084;8.576;2023-09-19T05:28:05;2.40;;;2.20;;
691;SDS011;70475;50.084;8.576;2023-09-19T05:30:34;2.50;;;1.53;;
691;SDS011;70475;50.084;8.576;2023-09-19T05:33:04;2.97;;;1.50;;
691;SDS011;70475;50.084;8.576;2023-09-19T05:35:32;2.10;;;1.47;;
691;SDS011;70475;50.084;8.576;2023-09-19T05:38:00;5.83;;;2.00;;
691;SDS011;70475;50.084;8.576;2023-09-19T05:40:28;5.70;;;2.70;;
691;SDS011;70475;50.084;8.576;2023-09-19T05:42:57;2.50;;;1.53;;
691;SDS011;70475;50.084;8.576;2023-09-19T05:45:24;3.20;;;1.47;;
691;SDS011;70475;50.084;8.576;2023-09-19T05:47:53;1.63;;;1.40;;
691;SDS011;70475;50.084;8.576;2023-09-19T05:50:22;3.20;;;1.70;;
691;SDS011;70475;50.084;8.576;2023-09-19T05:52:51;3.43;;;2.00;;
691;SDS011;70475;50.084;8.576;2023-09-19T05:55:19;1.47;;;1.27;;
691;SDS011;70475;50.084;8.576;2023-09-19T05:57:51;2.10;;;1.70;;
691;SDS011;70475;50.084;8.576;2023-09-19T06:00:20;6.50;;;2.20;;
691;SDS011;70475;50.084;8.576;2023-09-19T06:02:50;3.30;;;1.40;;
691;SDS011;70475;50.084;8.576;2023-09-19T06:05:18;4.83;;;1.50;;
691;SDS011;70475;50.084;8.576;2023-09-19T06:07:46;4.50;;;1.43;;
691;SDS011;70475;50.084;8.576;2023-09-19T06:10:14;2.40;;;1.23;;
691;SDS011;70475;50.084;8.576;2023-09-19T06:12:43;1.43;;;1.27;;
691;SDS011;70475;50.084;8.576;2023-09-19T06:15:12;3.70;;;1.40;;
691;SDS011;70475;50.084;8.576;2023-09-19T06:17:43;2.70;;;1.30;;
691;SDS011;70475;50.084;8.576;2023-09-19T06:20:14;5.23;;;1.40;;
691;SDS011;70475;50.084;8.576;2023-09-19T06:22:44;1.50;;;1.03;;
691;SDS011;70475;50.084;8.576;2023-09-19T06:25:13;3.13;;;1.57;;
691;SDS011;70475;50.084;8.576;2023-09-19T06:27:45;4.13;;;1.80;;
691;SDS011;70475;50.084;8.576;2023-09-19T06:30:13;3.00;;;1.90;;
691;SDS011;70475;50.084;8.576;2023-09-19T06:32:41;3.70;;;2.00;;
691;SDS011;70475;50.084;8.576;2023-09-19T06:35:11;3.03;;;1.90;;
691;SDS011;70475;50.084;8.576;2023-09-19T06:37:40;3.60;;;2.53;;
691;SDS011;70475;50.084;8.576;2023-09-19T06:40:09;3.17;;;1.47;;
691;SDS011;70475;50.084;8.576;2023-09-19T06:42:40;2.10;;;1.60;;
691;SDS011;70475;50.084;8.576;2023-09-19T06:45:08;2.90;;;1.37;;
691;SDS011;70475;50.084;8.576;2023-09-19T06:47:37;2.00;;;1.40;;
691;SDS011;70475;50.084;8.576;2023-09-19T06:50:06;3.00;;;2.10;;
691;SDS011;70475;50.084;8.576;2023-09-19T06:52:39;4.10;;;1.77;;
691;SDS011;70475;50.084;8.576;2023-09-19T06:55:07;2.40;;;1.60;;
691;SDS011;70475;50.084;8.576;2023-09-19T06:57:36;1.67;;;1.23;;
691;SDS011;70475;50.084;8.576;2023-09-19T07:00:03;2.93;;;1.50;;
691;SDS011;70475;50.084;8.576;2023-09-19T07:02:35;1.87;;;1.70;;
691;SDS011;70475;50.084;8.576;2023-09-19T07:05:03;2.10;;;1.90;;
691;SDS011;70475;50.084;8.576;2023-09-19T07:07:34;1.50;;;1.17;;
691;SDS011;70475;50.084;8.576;2023-09-19T07:10:02;6.83;;;1.77;;
691;SDS011;70475;50.084;8.576;2023-09-19T07:12:31;1.90;;;1.27;;
691;SDS011;70475;50.084;8.576;2023-09-19T07:14:59;1.57;;;1.33;;
691;SDS011;70475;50.084;8.576;2023-09-19T07:17:27;7.90;;;1.53;;
691;SDS011;70475;50.084;8.576;2023-09-19T07:19:56;3.10;;;1.17;;
691;SDS011;70475;50.084;8.576;2023-09-19T07:22:24;2.00;;;1.27;;
691;SDS011;70475;50.084;8.576;2023-09-19T07:24:54;1.20;;;0.93;;
691;SDS011;70475;50.084;8.576;2023-09-19T07:27:22;2.90;;;1.30;;
691;SDS011;70475;50.084;8.576;2023-09-19T07:29:49;2.33;;;1.57;;
691;SDS011;70475;50.084;8.576;2023-09-19T07:32:20;1.77;;;1.07;;
691;SDS011;70475;50.084;8.576;2023-09-19T07:34:48;2.80;;;1.00;;
691;SDS011;70475;50.084;8.576;2023-09-19T07:37:15;3.07;;;1.20;;
691;SDS011;70475;50.084;8.576;2023-09-19T07:39:43;2.10;;;0.90;;
691;SDS011;70475;50.084;8.576;2023-09-19T07:42:12;2.10;;;1.33;;
691;SDS011;70475;50.084;8.576;2023-09-19T07:44:44;5.03;;;1.47;;
691;SDS011;70475;50.084;8.576;2023-09-19T07:47:13;1.40;;;1.00;;
691;SDS011;70475;50.084;8.576;2023-09-19T07:49:41;1.90;;;1.17;;
691;SDS011;70475;50.084;8.576;2023-09-19T07:52:09;1.90;;;0.60;;
691;SDS011;70475;50.084;8.576;2023-09-19T07:54:38;4.50;;;0.83;;
691;SDS011;70475;50.084;8.576;2023-09-19T07:57:07;2.00;;;1.10;;
691;SDS011;70475;50.084;8.576;2023-09-19T07:59:36;4.13;;;0.80;;
691;SDS011;70475;50.084;8.576;2023-09-19T08:02:04;3.47;;;0.87;;
691;SDS011;70475;50.084;8.576;2023-09-19T08:04:34;1.40;;;0.70;;
691;SDS011;70475;50.084;8.576;2023-09-19T08:07:02;5.73;;;0.90;;
691;SDS011;70475;50.084;8.576;2023-09-19T08:09:31;2.50;;;0.90;;
691;SDS011;70475;50.084;8.576;2023-09-19T08:12:00;3.87;;;1.10;;
691;SDS011;70475;50.084;8.576;2023-09-19T08:14:29;2.43;;;1.20;;
691;SDS011;70475;50.084;8.576;2023-09-19T08:16:58;5.13;;;1.27;;
691;SDS011;70475;50.084;8.576;2023-09-19T08:19:26;1.47;;;0.77;;
691;SDS011;70475;50.084;8.576;2023-09-19T08:21:57;1.30;;;0.90;;
691;SDS011;70475;50.084;8.576;2023-09-19T08:24:25;1.40;;;1.00;;
691;SDS011;70475;50.084;8.576;2023-09-19T08:26:54;3.37;;;1.10;;
691;SDS011;70475;50.084;8.576;2023-09-19T08:29:22;2.80;;;1.20;;
691;SDS011;70475;50.084;8.576;2023-09-19T08:31:54;2.27;;;0.90;;
691;SDS011;70475;50.084;8.576;2023-09-19T08:34:23;1.97;;;1.17;;
691;SDS011;70475;50.084;8.576;2023-09-19T08:36:52;4.30;;;1.40;;
691;SDS011;70475;50.084;8.576;2023-09-19T08:39:22;6.20;;;1.07;;
691;SDS011;70475;50.084;8.576;2023-09-19T08:41:51;1.70;;;0.80;;
691;SDS011;70475;50.084;8.576;2023-09-19T08:44:24;0.93;;;0.60;;
691;SDS011;70475;50.084;8.576;2023-09-19T08:46:52;5.40;;;1.40;;
691;SDS011;70475;50.084;8.576;2023-09-19T08:49:27;3.00;;;1.20;;
691;SDS011;70475;50.084;8.576;2023-09-19T08:52:01;2.23;;;1.07;;
691;SDS011;70475;50.084;8.576;2023-09-19T08:54:35;2.60;;;1.17;;
691;SDS011;70475;50.084;8.576;2023-09-19T08:57:06;2.10;;;1.00;;
691;SDS011;70475;50.084;8.576;2023-09-19T08:59:37;0.97;;;0.60;;
691;SDS011;70475;50.084;8.576;2023-09-19T09:02:08;4.60;;;1.57;;
691;SDS011;70475;50.084;8.576;2023-09-19T09:04:41;2.20;;;1.73;;
691;SDS011;70475;50.084;8.576;2023-09-19T09:07:10;1.90;;;1.10;;
691;SDS011;70475;50.084;8.576;2023-09-19T09:09:38;1.50;;;0.90;;
691;SDS011;70475;50.084;8.576;2023-09-19T09:12:08;3.67;;;1.00;;
691;SDS011;70475;50.084;8.576;2023-09-19T09:14:38;1.33;;;0.70;;
691;SDS011;70475;50.084;8.576;2023-09-19T09:17:06;6.07;;;1.57;;
691;SDS011;70475;50.084;8.576;2023-09-19T09:19:34;1.17;;;0.90;;
691;SDS011;70475;50.084;8.576;2023-09-19T09:22:09;2.40;;;1.07;;
691;SDS011;70475;50.084;8.576;2023-09-19T09:24:52;2.87;;;1.00;;
691;SDS011;70475;50.084;8.576;2023-09-19T09:27:20;4.43;;;1.33;;
691;SDS011;70475;50.084;8.576;2023-09-19T09:29:50;3.97;;;1.20;;
691;SDS011;70475;50.084;8.576;2023-09-19T09:32:22;3.87;;;0.97;;
691;SDS011;70475;50.084;8.576;2023-09-19T09:34:52;3.83;;;0.77;;
691;SDS011;70475;50.084;8.576;2023-09-19T09:37:25;2.80;;;1.00;;
691;SDS011;70475;50.084;8.576;2023-09-19T09:39:56;2.40;;;1.03;;
691;SDS011;70475;50.084;8.576;2023-09-19T09:42:45;1.93;;;0.97;;
691;SDS011;70475;50.084;8.576;2023-09-19T09:45:14;2.20;;;1.20;;
691;SDS011;70475;50.084;8.576;2023-09-19T09:47:44;3.50;;;1.10;;
691;SDS011;70475;50.084;8.576;2023-09-19T09:50:25;2.10;;;0.93;;
691;SDS011;70475;50.084;8.576;2023-09-19T09:52:57;2.90;;;1.00;;
691;SDS011;70475;50.084;8.576;2023-09-19T09:55:56;1.47;;;0.73;;
691;SDS011;70475;50.084;8.576;2023-09-19T09:58:24;5.37;;;1.10;;
691;SDS011;70475;50.084;8.576;2023-09-19T10:00:56;4.47;;;1.00;;
691;SDS011;70475;50.084;8.576;2023-09-19T10:03:32;1.40;;;0.77;;
691;SDS011;70475;50.084;8.576;2023-09-19T10:06:09;1.33;;;0.80;;
691;SDS011;70475;50.084;8.576;2023-09-19T10:09:01;2.93;;;1.13;;
691;SDS011;70475;50.084;8.576;2023-09-19T10:11:41;2.60;;;1.17;;
691;SDS011;70475;50.084;8.576;2023-09-19T10:14:10;4.00;;;1.13;;
691;SDS011;70475;50.084;8.576;2023-09-19T10:16:40;3.43;;;1.50;;
691;SDS011;70475;50.084;8.576;2023-09-19T10:19:11;3.60;;;1.20;;
691;SDS011;70475;50.084;8.576;2023-09-19T10:21:43;4.10;;;1.43;;
691;SDS011;70475;50.084;8.576;2023-09-19T10:24:13;4.23;;;1.20;;
691;SDS011;70475;50.084;8.576;2023-09-19T10:26:42;2.03;;;1.13;;
691;SDS011;70475;50.084;8.576;2023-09-19T10:29:11;3.70;;;0.90;;
691;SDS011;70475;50.084;8.576;2023-09-19T10:31:42;2.57;;;1.13;;
691;SDS011;70475;50.084;8.576;2023-09-19T10:34:14;3.93;;;1.20;;
691;SDS011;70475;50.084;8.576;2023-09-19T10:36:44;2.90;;;1.20;;
691;SDS011;70475;50.084;8.576;2023-09-19T10:39:15;5.70;;;1.60;;
691;SDS011;70475;50.084;8.576;2023-09-19T10:41:47;3.43;;;1.80;;
691;SDS011;70475;50.084;8.576;2023-09-19T10:44:21;2.40;;;1.20;;
691;SDS011;70475;50.084;8.576;2023-09-19T10:46:51;6.63;;;1.17;;
691;SDS011;70475;50.084;8.576;2023-09-19T10:49:20;4.03;;;1.30;;
691;SDS011;70475;50.084;8.576;2023-09-19T10:51:49;1.63;;;0.70;;
691;SDS011;70475;50.084;8.576;2023-09-19T10:54:22;1.57;;;1.07;;
691;SDS011;70475;50.084;8.576;2023-09-19T10:56:54;2.50;;;0.90;;
691;SDS011;70475;50.084;8.576;2023-09-19T10:59:25;2.10;;;1.13;;
691;SDS011;70475;50.084;8.576;2023-09-19T11:02:15;2.00;;;1.13;;
691;SDS011;70475;50.084;8.576;2023-09-19T11:04:44;2.20;;;0.67;;
691;SDS011;70475;50.084;8.576;2023-09-19T11:07:14;1.53;;;0.70;;
691;SDS011;70475;50.084;8.576;2023-09-19T11:09:44;1.67;;;0.93;;
691;SDS011;70475;50.084;8.576;2023-09-19T11:18:51;3.37;;;1.20;;
691;SDS011;70475;50.084;8.576;2023-09-19T11:21:38;8.80;;;1.20;;
691;SDS011;70475;50.084;8.576;2023-09-19T11:24:27;2.40;;;1.33;;
691;SDS011;70475;50.084;8.576;2023-09-19T11:27:11;2.13;;;1.17;;
691;SDS011;70475;50.084;8.576;2023-09-19T11:29:40;2.30;;;0.70;;
691;SDS011;70475;50.084;8.576;2023-09-19T11:32:07;2.40;;;0.80;;
691;SDS011;70475;50.084;8.576;2023-09-19T11:34:46;4.00;;;1.30;;
691;SDS011;70475;50.084;8.576;2023-09-19T11:40:45;6.90;;;1.70;;
691;SDS011;70475;50.084;8.576;2023-09-19T11:43:30;1.60;;;0.80;;
691;SDS011;70475;50.084;8.576;2023-09-19T11:46:03;1.33;;;0.90;;
691;SDS011;70475;50.084;8.576;2023-09-19T11:48:32;2.20;;;0.63;;
691;SDS011;70475;50.084;8.576;2023-09-19T11:51:01;2.30;;;1.10;;
691;SDS011;70475;50.084;8.576;2023-09-19T11:53:33;3.13;;;1.20;;
691;SDS011;70475;50.084;8.576;2023-09-19T11:56:04;2.03;;;1.00;;
691;SDS011;70475;50.084;8.576;2023-09-19T11:58:38;6.37;;;0.80;;
691;SDS011;70475;50.084;8.576;2023-09-19T12:01:09;5.30;;;1.10;;
691;SDS011;70475;50.084;8.576;2023-09-19T12:03:46;2.03;;;0.80;;
691;SDS011;70475;50.084;8.576;2023-09-19T12:06:15;3.53;;;0.93;;
691;SDS011;70475;50.084;8.576;2023-09-19T12:08:44;3.30;;;1.00;;
691;SDS011;70475;50.084;8.576;2023-09-19T12:11:13;5.27;;;1.40;;
691;SDS011;70475;50.084;8.576;2023-09-19T12:13:47;6.50;;;1.10;;
691;SDS011;70475;50.084;8.576;2023-09-19T12:16:16;1.10;;;0.70;;
691;SDS011;70475;50.084;8.576;2023-09-19T12:18:48;4.53;;;1.30;;
691;SDS011;70475;50.084;8.576;2023-09-19T12:21:24;3.37;;;0.80;;
691;SDS011;70475;50.084;8.576;2023-09-19T12:24:03;1.77;;;0.77;;
691;SDS011;70475;50.084;8.576;2023-09-19T12:26:39;5.73;;;1.27;;
691;SDS011;70475;50.084;8.576;2023-09-19T12:29:14;3.93;;;0.90;;
691;SDS011;70475;50.084;8.576;2023-09-19T12:31:50;6.37;;;1.07;;
691;SDS011;70475;50.084;8.576;2023-09-19T12:34:23;2.87;;;0.70;;
691;SDS011;70475;50.084;8.576;2023-09-19T12:37:04;2.50;;;0.97;;
691;SDS011;70475;50.084;8.576;2023-09-19T12:39:39;2.93;;;1.30;;
691;SDS011;70475;50.084;8.576;2023-09-19T12:42:15;4.50;;;1.10;;
691;SDS011;70475;50.084;8.576;2023-09-19T12:44:45;2.67;;;1.00;;
691;SDS011;70475;50.084;8.576;2023-09-19T12:47:14;2.40;;;1.37;;
691;SDS011;70475;50.084;8.576;2023-09-19T12:52:35;3.70;;;0.77;;
691;SDS011;70475;50.084;8.576;2023-09-19T12:55:04;1.10;;;1.00;;
691;SDS011;70475;50.084;8.576;2023-09-19T12:57:33;1.63;;;0.90;;
691;SDS011;70475;50.084;8.576;2023-09-19T13:00:02;1.67;;;0.80;;
691;SDS011;70475;50.084;8.576;2023-09-19T13:02:32;3.77;;;1.03;;
691;SDS011;70475;50.084;8.576;2023-09-19T13:05:00;1.73;;;0.70;;
691;SDS011;70475;50.084;8.576;2023-09-19T13:07:42;3.50;;;1.13;;
691;SDS011;70475;50.084;8.576;2023-09-19T13:10:15;2.80;;;0.90;;
691;SDS011;70475;50.084;8.576;2023-09-19T13:12:46;1.40;;;0.70;;
691;SDS011;70475;50.084;8.576;2023-09-19T13:15:15;3.37;;;0.97;;
691;SDS011;70475;50.084;8.576;2023-09-19T13:17:46;4.70;;;1.37;;
691;SDS011;70475;50.084;8.576;2023-09-19T13:20:21;4.50;;;1.50;;
691;SDS011;70475;50.084;8.576;2023-09-19T13:22:55;1.80;;;0.80;;
691;SDS011;70475;50.084;8.576;2023-09-19T13:25:26;2.30;;;0.93;;
691;SDS011;70475;50.084;8.576;2023-09-19T13:27:56;2.27;;;0.73;;
691;SDS011;70475;50.084;8.576;2023-09-19T13:30:27;6.33;;;1.00;;
691;SDS011;70475;50.084;8.576;2023-09-19T13:33:04;2.97;;;1.00;;
691;SDS011;70475;50.084;8.576;2023-09-19T13:35:33;2.13;;;1.10;;
691;SDS011;70475;50.084;8.576;2023-09-19T13:38:02;1.47;;;0.73;;
691;SDS011;70475;50.084;8.576;2023-09-19T13:40:31;2.90;;;1.30;;
691;SDS011;70475;50.084;8.576;2023-09-19T13:43:01;2.90;;;0.90;;
691;SDS011;70475;50.084;8.576;2023-09-19T13:45:30;2.80;;;0.63;;
691;SDS011;70475;50.084;8.576;2023-09-19T13:47:58;3.33;;;0.67;;
691;SDS011;70475;50.084;8.576;2023-09-19T13:50:25;2.90;;;0.83;;
691;SDS011;70475;50.084;8.576;2023-09-19T13:52:55;2.60;;;1.60;;
691;SDS011;70475;50.084;8.576;2023-09-19T13:55:24;1.60;;;0.80;;
691;SDS011;70475;50.084;8.576;2023-09-19T13:57:51;1.50;;;0.57;;
691;SDS011;70475;50.084;8.576;2023-09-19T14:00:21;1.70;;;0.80;;
691;SDS011;70475;50.084;8.576;2023-09-19T14:02:50;1.73;;;0.90;;
691;SDS011;70475;50.084;8.576;2023-09-19T14:05:18;3.00;;;0.80;;
691;SDS011;70475;50.084;8.576;2023-09-19T14:07:47;1.23;;;0.70;;
691;SDS011;70475;50.084;8.576;2023-09-19T14:10:15;3.17;;;0.70;;
691;SDS011;70475;50.084;8.576;2023-09-19T14:12:44;3.00;;;0.73;;
691;SDS011;70475;50.084;8.576;2023-09-19T14:15:12;4.00;;;1.00;;
691;SDS011;70475;50.084;8.576;2023-09-19T14:17:40;1.77;;;0.70;;
691;SDS011;70475;50.084;8.576;2023-09-19T14:20:10;4.83;;;0.93;;
691;SDS011;70475;50.084;8.576;2023-09-19T14:22:38;1.00;;;0.70;;
691;SDS011;70475;50.084;8.576;2023-09-19T14:25:06;1.20;;;0.70;;
691;SDS011;70475;50.084;8.576;2023-09-19T14:27:35;2.03;;;0.70;;
691;SDS011;70475;50.084;8.576;2023-09-19T14:30:03;0.80;;;0.50;;
691;SDS011;70475;50.084;8.576;2023-09-19T14:32:31;2.03;;;1.00;;
691;SDS011;70475;50.084;8.576;2023-09-19T14:34:59;2.37;;;0.80;;
691;SDS011;70475;50.084;8.576;2023-09-19T14:37:28;1.40;;;0.70;;
691;SDS011;70475;50.084;8.576;2023-09-19T14:39:57;1.17;;;0.50;;
691;SDS011;70475;50.084;8.576;2023-09-19T14:42:25;1.50;;;0.70;;
691;SDS011;70475;50.084;8.576;2023-09-19T14:44:52;1.97;;;0.60;;
691;SDS011;70475;50.084;8.576;2023-09-19T14:47:20;2.73;;;0.80;;
691;SDS011;70475;50.084;8.576;2023-09-19T14:49:47;2.30;;;0.90;;
691;SDS011;70475;50.084;8.576;2023-09-19T14:52:15;4.80;;;0.90;;
691;SDS011;70475;50.084;8.576;2023-09-19T14:54:44;1.90;;;0.60;;
691;SDS011;70475;50.084;8.576;2023-09-19T14:57:12;2.00;;;0.73;;
691;SDS011;70475;50.084;8.576;2023-09-19T14:59:41;0.93;;;0.60;;
691;SDS011;70475;50.084;8.576;2023-09-19T15:02:08;2.40;;;0.80;;
691;SDS011;70475;50.084;8.576;2023-09-19T15:04:36;4.33;;;0.87;;
691;SDS011;70475;50.084;8.576;2023-09-19T15:07:07;1.17;;;0.70;;
691;SDS011;70475;50.084;8.576;2023-09-19T15:09:35;4.20;;;1.07;;
691;SDS011;70475;50.084;8.576;2023-09-19T15:12:05;1.37;;;0.50;;
691;SDS011;70475;50.084;8.576;2023-09-19T15:14:33;1.63;;;0.70;;
691;SDS011;70475;50.084;8.576;2023-09-19T15:17:00;2.30;;;0.70;;
691;SDS011;70475;50.084;8.576;2023-09-19T15:19:31;2.50;;;0.80;;
691;SDS011;70475;50.084;8.576;2023-09-19T15:21:58;0.97;;;0.50;;
691;SDS011;70475;50.084;8.576;2023-09-19T15:24:26;1.30;;;0.70;;
691;SDS011;70475;50.084;8.576;2023-09-19T15:26:53;0.90;;;0.70;;
691;SDS011;70475;50.084;8.576;2023-09-19T15:29:23;1.93;;;0.90;;
691;SDS011;70475;50.084;8.576;2023-09-19T15:31:50;1.80;;;0.87;;
691;SDS011;70475;50.084;8.576;2023-09-19T15:34:18;1.80;;;0.77;;
691;SDS011;70475;50.084;8.576;2023-09-19T15:36:45;2.63;;;0.67;;
691;SDS011;70475;50.084;8.576;2023-09-19T15:39:13;1.27;;;0.60;;
691;SDS011;70475;50.084;8.576;2023-09-19T15:41:44;1.23;;;0.63;;
691;SDS011;70475;50.084;8.576;2023-09-19T15:44:14;2.87;;;1.00;;
691;SDS011;70475;50.084;8.576;2023-09-19T15:46:44;1.00;;;0.60;;